This is the latest recevied weather packets stored in our database for station/object KD0RIH. If no packets are shown the sender has not sent any weather packets the latest 10 day(s).
| Time | Temp. | Humidity | Pressure | Rain* | Wind** | Luminosity | Snow |
|---|---|---|---|---|---|---|---|
| 1777750530 | 19.44° C | 26% | 1019.8 hPa | 0 mm | - | 895 W/m² | - |
| 1777750226 | 21.11° C | 22% | 1020.1 hPa | 0 mm | - | 909 W/m² | - |
| 1777749922 | 21.67° C | 25% | 1020.1 hPa | 0 mm | - | 911 W/m² | - |
| 1777749620 | 20° C | 28% | 1020.2 hPa | 0 mm | - | 914 W/m² | - |
| 1777749316 | 18.33° C | 27% | 1020.3 hPa | 0 mm | - | 936 W/m² | - |
| 1777749014 | 21.67° C | 24% | 1020.3 hPa | 0 mm | - | 965 W/m² | - |
| 1777748711 | 21.67° C | 24% | 1020.5 hPa | 0 mm | - | 963 W/m² | - |
| 1777748408 | 21.67° C | 22% | 1020.4 hPa | 0 mm | - | 976 W/m² | - |
| 1777748103 | 21.67° C | 23% | 1020.4 hPa | 0 mm | - | 210 W/m² | - |
| 1777747800 | 19.44° C | 27% | 1020.3 hPa | 0 mm | - | 1009 W/m² | - |
| 1777747495 | 20.56° C | 26% | 1020.5 hPa | 0 mm | - | 249 W/m² | - |
| 1777747192 | 20.56° C | 25% | 1020.7 hPa | 0 mm | - | 593 W/m² | - |
| 1777746889 | 21.11° C | 24% | 1020.5 hPa | 0 mm | - | 999 W/m² | - |
| 1777746583 | 19.44° C | 27% | 1020.6 hPa | 0 mm | - | 985 W/m² | - |
| 1777746280 | 20.56° C | 23% | 1020.8 hPa | 0 mm | - | 1015 W/m² | - |
| 1777745976 | 21.67° C | 23% | 1020.7 hPa | 0 mm | - | 971 W/m² | - |
| 1777745674 | 20° C | 25% | 1020.8 hPa | 0 mm | - | 998 W/m² | - |
| 1777745372 | 20.56° C | 24% | 1020.8 hPa | 0 mm | - | 987 W/m² | - |
| 1777745069 | 21.67° C | 23% | 1020.9 hPa | 0 mm | - | 996 W/m² | - |
| 1777744766 | 19.44° C | 26% | 1021.1 hPa | 0 mm | - | 993 W/m² | - |
| 1777744460 | 20° C | 25% | 1021 hPa | 0 mm | - | 988 W/m² | - |
| 1777744156 | 21.67° C | 22% | 1021.2 hPa | 0 mm | - | 989 W/m² | - |
| 1777743854 | 21.11° C | 26% | 1021 hPa | 0 mm | - | 992 W/m² | - |
| 1777743550 | 21.11° C | 23% | 1021 hPa | 0 mm | - | 984 W/m² | - |
| 1777743247 | 20.56° C | 27% | 1021.1 hPa | 0 mm | - | 979 W/m² | - |
* Rain latest hour (hover to see other rain measurements)
** Current wind speed in m/s (hover to see current wind gust speed)